Time;durP1;ratioP1;P1;durP2;ratioP2;P2;SDS_P1;SDS_P2;PMS_P1;PMS_P2;Temp;Humidity;BMP_temperature;BMP_pressure;BME280_temperature;BME280_humidity;BME280_pressure;Samples;Min_cycle;Max_cycle;Signal;HPM_P1;HPM_P2
2023/04/03 00:01:11;;;;;;;;;;;11.70;81.10;;;;;;5075042;28;20294;-17
2023/04/03 00:09:20;;;;;;;;;;;11.60;81.40;;;;;;4954364;29;19921;-17
2023/04/03 00:11:49;;;;;;;;;;;11.60;81.60;;;;;;4938930;29;19911;-22
2023/04/03 00:14:27;;;;;;;;;;;11.60;81.80;;;;;;4952774;29;20213;-18
2023/04/03 00:16:58;;;;;;;;;;;11.60;81.90;;;;;;4954814;28;19962;-17
2023/04/03 00:19:27;;;;;;;;;;;11.50;82.00;;;;;;4988904;28;20185;-16
2023/04/03 00:22:08;;;;;;;;;;;11.50;82.00;;;;;;4992449;28;19964;-17
2023/04/03 00:24:33;;;;;;;;;;;11.50;82.20;;;;;;4993422;28;19914;-17
2023/04/03 00:26:59;;;;;;;;;;;11.50;82.30;;;;;;4992653;28;19920;-16
2023/04/03 00:29:25;;;;;;;;;;;11.50;82.30;;;;;;4992411;28;20038;-18
2023/04/03 00:31:50;;;;;;;;;;;11.50;82.30;;;;;;4993723;28;19914;-20
2023/04/03 00:34:16;;;;;;;;;;;11.50;82.50;;;;;;5059067;28;20009;-15
2023/04/03 00:37:15;;;;;;;;;;;11.40;82.50;;;;;;5056513;28;20017;-18
2023/04/03 00:39:41;;;;;;;;;;;11.40;82.60;;;;;;5057858;28;20309;-19
2023/04/03 00:42:13;;;;;;;;;;;11.40;82.80;;;;;;5058610;28;19924;-16
2023/04/03 00:44:38;;;;;;;;;;;11.40;82.90;;;;;;5077158;28;19908;-15
2023/04/03 00:47:19;;;;;;;;;;;11.40;82.90;;;;;;5060883;28;20228;-16
2023/04/03 00:49:45;;;;;;;;;;;11.40;83.00;;;;;;5060329;28;19931;-15
2023/04/03 00:52:30;;;;;;;;;;;11.30;82.90;;;;;;5078709;28;20273;-17
2023/04/03 00:55:16;;;;;;;;;;;11.30;83.00;;;;;;5062395;28;19908;-16
2023/04/03 01:01:02;;;;;;;;;;;11.30;83.40;;;;;;5007026;28;19910;-19
2023/04/03 01:03:31;;;;;;;;;;;11.30;83.40;;;;;;5077689;28;20247;-17
2023/04/03 01:06:18;;;;;;;;;;;11.30;83.30;;;;;;5053785;28;20309;-17
2023/04/03 01:09:02;;;;;;;;;;;11.30;83.40;;;;;;5059214;28;19913;-20
2023/04/03 01:11:28;;;;;;;;;;;11.30;83.50;;;;;;5058685;28;19938;-18
2023/04/03 01:13:56;;;;;;;;;;;11.30;83.60;;;;;;5059694;28;19912;-17
2023/04/03 01:16:31;;;;;;;;;;;11.30;83.60;;;;;;5077027;28;19995;-17
2023/04/03 01:19:00;;;;;;;;;;;11.20;83.50;;;;;;5048207;28;20297;-19
2023/04/03 01:21:53;;;;;;;;;;;11.30;83.50;;;;;;5060174;28;20236;-17
2023/04/03 01:33:22;;;;;;;;;;;11.20;83.30;;;;;;4993211;28;19928;-16
2023/04/03 01:38:46;;;;;;;;;;;11.30;83.20;;;;;;5033893;28;19974;-17
2023/04/03 01:41:15;;;;;;;;;;;11.30;83.10;;;;;;5033016;28;20330;-17
2023/04/03 01:43:41;;;;;;;;;;;11.30;83.00;;;;;;5032952;28;20241;-16
2023/04/03 01:46:07;;;;;;;;;;;11.30;83.00;;;;;;5034821;28;20515;-18
2023/04/03 01:48:45;;;;;;;;;;;11.30;82.90;;;;;;5027776;28;20419;-18
2023/04/03 01:51:13;;;;;;;;;;;11.30;82.80;;;;;;5018718;28;19917;-19
2023/04/03 01:57:05;;;;;;;;;;;11.30;82.80;;;;;;4994213;28;19956;-17
2023/04/03 01:59:36;;;;;;;;;;;11.30;82.50;;;;;;4994280;28;19953;-18
2023/04/03 02:02:08;;;;;;;;;;;11.30;82.40;;;;;;4994173;28;19996;-16
2023/04/03 02:05:03;;;;;;;;;;;11.30;82.30;;;;;;5009721;28;20003;-18
2023/04/03 02:07:34;;;;;;;;;;;11.30;82.20;;;;;;5006304;28;19920;-17
2023/04/03 02:10:17;;;;;;;;;;;11.30;82.10;;;;;;5020092;28;19943;-16
2023/04/03 02:12:49;;;;;;;;;;;11.30;82.00;;;;;;5019741;28;19913;-17
2023/04/03 02:15:23;;;;;;;;;;;11.30;81.70;;;;;;5036420;28;19996;-14
2023/04/03 02:18:14;;;;;;;;;;;11.30;81.70;;;;;;5034172;28;20241;-18
2023/04/03 02:20:42;;;;;;;;;;;11.30;81.60;;;;;;5074526;28;19909;-17
2023/04/03 02:23:08;;;;;;;;;;;11.30;81.40;;;;;;5075581;28;19920;-16
2023/04/03 02:25:34;;;;;;;;;;;11.30;81.30;;;;;;5074937;28;19909;-17
2023/04/03 02:28:02;;;;;;;;;;;11.30;81.10;;;;;;5074914;28;19923;-17
2023/04/03 02:30:30;;;;;;;;;;;11.30;81.10;;;;;;5075169;28;20019;-16
2023/04/03 02:33:02;;;;;;;;;;;11.30;80.90;;;;;;5074369;28;20197;-18
2023/04/03 02:35:52;;;;;;;;;;;11.30;80.70;;;;;;5074598;28;19909;-16
2023/04/03 02:41:34;;;;;;;;;;;11.50;79.20;;;;;;5075781;28;20186;-17
2023/04/03 02:44:00;;;;;;;;;;;11.70;77.90;;;;;;5053942;28;19908;-15
2023/04/03 02:46:26;;;;;;;;;;;12.00;75.90;;;;;;5059049;28;20111;-18
2023/04/03 02:49:06;;;;;;;;;;;12.40;74.00;;;;;;5077047;28;20000;-18
2023/04/03 02:51:54;;;;;;;;;;;12.60;71.90;;;;;;5058283;28;19939;-16
2023/04/03 02:54:19;;;;;;;;;;;12.80;70.40;;;;;;5075439;28;20044;-17
2023/04/03 02:56:48;;;;;;;;;;;12.90;69.60;;;;;;5057108;28;20133;-17
2023/04/03 03:02:08;;;;;;;;;;;13.00;68.50;;;;;;5074917;28;20017;-19
2023/04/03 03:04:40;;;;;;;;;;;13.00;68.00;;;;;;5056995;28;20260;-18
2023/04/03 03:07:14;;;;;;;;;;;13.00;67.70;;;;;;5051694;28;19992;-15
2023/04/03 03:09:46;;;;;;;;;;;13.10;67.20;;;;;;5036421;28;19931;-18
2023/04/03 03:17:47;;;;;;;;;;;13.70;63.90;;;;;;5013150;28;19971;-16
2023/04/03 03:20:16;;;;;;;;;;;13.70;62.90;;;;;;5012990;28;19909;-19
2023/04/03 03:23:00;;;;;;;;;;;13.70;62.60;;;;;;5032504;28;19944;-16
2023/04/03 03:25:31;;;;;;;;;;;13.70;62.40;;;;;;5034634;28;19908;-17
2023/04/03 03:27:57;;;;;;;;;;;13.70;62.40;;;;;;5051480;28;20205;-17
2023/04/03 03:33:31;;;;;;;;;;;13.50;62.70;;;;;;5052693;28;20003;-15
2023/04/03 03:36:06;;;;;;;;;;;13.40;63.00;;;;;;5053253;28;19984;-17
2023/04/03 03:38:34;;;;;;;;;;;13.30;63.40;;;;;;5067669;28;20277;-19
2023/04/03 03:41:06;;;;;;;;;;;13.20;64.00;;;;;;5074838;28;19913;-19
2023/04/03 03:46:51;;;;;;;;;;;13.20;64.00;;;;;;5064587;28;19927;-18
2023/04/03 03:49:23;;;;;;;;;;;13.30;63.30;;;;;;5058350;28;20131;-17
2023/04/03 03:51:49;;;;;;;;;;;13.50;62.30;;;;;;5075571;28;19909;-18
2023/04/03 03:54:37;;;;;;;;;;;13.60;61.40;;;;;;5057645;28;19927;-17
2023/04/03 03:57:21;;;;;;;;;;;13.80;60.50;;;;;;5055484;28;20198;-16
2023/04/03 04:00:07;;;;;;;;;;;13.90;59.90;;;;;;5073768;28;20016;-15
2023/04/03 04:02:41;;;;;;;;;;;14.00;59.50;;;;;;5054683;28;19909;-16
2023/04/03 04:05:22;;;;;;;;;;;14.10;59.30;;;;;;5074034;28;19909;-17
2023/04/03 04:07:47;;;;;;;;;;;14.10;59.20;;;;;;5051078;28;19908;-16
2023/04/03 04:10:16;;;;;;;;;;;14.00;59.20;;;;;;5073584;28;19917;-19
2023/04/03 04:12:57;;;;;;;;;;;14.00;59.30;;;;;;5054933;28;19912;-16
2023/04/03 04:15:32;;;;;;;;;;;13.90;59.30;;;;;;5073572;28;19912;-17
2023/04/03 04:18:06;;;;;;;;;;;13.80;59.40;;;;;;5073062;28;19913;-17
2023/04/03 04:20:37;;;;;;;;;;;13.80;59.50;;;;;;5073535;28;19909;-18
2023/04/03 04:23:03;;;;;;;;;;;13.70;59.60;;;;;;5055402;28;19916;-18
2023/04/03 04:25:32;;;;;;;;;;;13.60;59.70;;;;;;5054588;28;19921;-18
2023/04/03 04:28:10;;;;;;;;;;;13.60;59.90;;;;;;5053490;28;19994;-18
2023/04/03 04:30:39;;;;;;;;;;;13.50;60.00;;;;;;5052536;28;19987;-17
2023/04/03 04:33:11;;;;;;;;;;;13.40;60.20;;;;;;5072085;28;20463;-19
2023/04/03 04:36:24;;;;;;;;;;;13.40;60.40;;;;;;5070514;28;20025;-19
2023/04/03 04:38:52;;;;;;;;;;;13.30;60.40;;;;;;5067102;28;19909;-16
2023/04/03 04:41:28;;;;;;;;;;;13.30;60.40;;;;;;5054019;28;19943;-18
2023/04/03 04:44:08;;;;;;;;;;;13.30;60.40;;;;;;5071790;28;19909;-17
2023/04/03 04:46:43;;;;;;;;;;;13.30;60.50;;;;;;5071726;28;20009;-17
2023/04/03 04:49:08;;;;;;;;;;;13.20;60.70;;;;;;5071277;28;20305;-15
2023/04/03 04:51:37;;;;;;;;;;;13.20;60.80;;;;;;5054120;28;19916;-18
2023/04/03 04:54:05;;;;;;;;;;;13.20;60.90;;;;;;5070321;28;20087;-18
2023/04/03 04:56:37;;;;;;;;;;;13.20;61.00;;;;;;5083899;28;19912;-18
2023/04/03 04:59:02;;;;;;;;;;;13.10;61.00;;;;;;5073309;28;19909;-17
2023/04/03 05:01:28;;;;;;;;;;;13.20;60.90;;;;;;5072471;28;20006;-19
2023/04/03 05:04:10;;;;;;;;;;;13.20;60.80;;;;;;5092014;28;20007;-18
2023/04/03 05:06:35;;;;;;;;;;;13.20;60.40;;;;;;5074656;28;19923;-15
2023/04/03 05:09:10;;;;;;;;;;;13.40;59.90;;;;;;5070896;28;19908;-18
2023/04/03 05:11:35;;;;;;;;;;;13.50;59.60;;;;;;5073512;28;19986;-17
2023/04/03 05:14:24;;;;;;;;;;;13.50;59.40;;;;;;5071949;28;20256;-17
2023/04/03 05:17:10;;;;;;;;;;;13.50;59.20;;;;;;5010840;28;20261;-18
2023/04/03 05:19:35;;;;;;;;;;;13.50;59.20;;;;;;5050885;28;19909;-16
2023/04/03 05:22:04;;;;;;;;;;;13.50;59.10;;;;;;5040327;28;19935;-17
2023/04/03 05:24:32;;;;;;;;;;;13.50;59.20;;;;;;5039981;28;19974;-17
2023/04/03 05:27:13;;;;;;;;;;;13.50;59.20;;;;;;5033959;28;19952;-17
2023/04/03 05:29:44;;;;;;;;;;;13.50;59.20;;;;;;5049126;28;19909;-18
2023/04/03 05:32:10;;;;;;;;;;;13.40;59.20;;;;;;5049555;28;19967;-15
2023/04/03 05:34:36;;;;;;;;;;;13.50;59.20;;;;;;5033318;28;19909;-17
2023/04/03 05:37:03;;;;;;;;;;;13.50;59.20;;;;;;5049592;28;20236;-17
2023/04/03 05:39:28;;;;;;;;;;;13.50;59.20;;;;;;5053832;28;19908;-18
2023/04/03 05:42:09;;;;;;;;;;;13.40;59.20;;;;;;5068454;28;20262;-17
2023/04/03 05:44:35;;;;;;;;;;;13.40;59.20;;;;;;5069090;28;20333;-17
2023/04/03 05:47:12;;;;;;;;;;;13.40;59.20;;;;;;5069992;28;19916;-17
2023/04/03 05:49:40;;;;;;;;;;;13.60;59.00;;;;;;5070866;28;19941;-24
2023/04/03 05:52:13;;;;;;;;;;;13.70;58.50;;;;;;5090623;28;19969;-17
2023/04/03 05:54:39;;;;;;;;;;;13.80;58.20;;;;;;5091013;28;20292;-19
2023/04/03 05:57:04;;;;;;;;;;;14.10;57.80;;;;;;5090437;28;19913;-19
2023/04/03 05:59:33;;;;;;;;;;;14.20;57.40;;;;;;5090688;28;19908;-14
2023/04/03 06:02:01;;;;;;;;;;;14.40;57.10;;;;;;5088548;28;19920;-17
2023/04/03 06:04:30;;;;;;;;;;;14.50;56.80;;;;;;5087677;28;20131;-16
2023/04/03 06:07:20;;;;;;;;;;;14.70;56.60;;;;;;5068318;28;20342;-17
2023/04/03 06:09:51;;;;;;;;;;;15.00;56.30;;;;;;5088289;28;20223;-18
2023/04/03 06:12:17;;;;;;;;;;;15.40;55.80;;;;;;5071228;28;20369;-18
2023/04/03 06:15:04;;;;;;;;;;;15.80;55.20;;;;;;5071249;28;19909;-17
2023/04/03 06:17:36;;;;;;;;;;;16.20;54.50;;;;;;5089396;28;20063;-17
2023/04/03 06:20:02;;;;;;;;;;;16.50;53.70;;;;;;5089453;28;19908;-19
2023/04/03 06:22:30;;;;;;;;;;;16.80;53.10;;;;;;5073118;28;19919;-18
2023/04/03 06:24:56;;;;;;;;;;;17.10;52.70;;;;;;5072474;28;19943;-18
2023/04/03 06:27:40;;;;;;;;;;;17.30;52.20;;;;;;5071662;28;19916;-17
2023/04/03 06:30:22;;;;;;;;;;;17.60;51.70;;;;;;5090203;28;19919;-17
2023/04/03 06:32:53;;;;;;;;;;;17.90;51.60;;;;;;5072618;28;20094;-17
2023/04/03 06:35:30;;;;;;;;;;;18.10;50.70;;;;;;5089347;28;20140;-19
2023/04/03 06:37:55;;;;;;;;;;;18.40;50.30;;;;;;5088478;28;20294;-15
2023/04/03 06:40:30;;;;;;;;;;;18.60;49.80;;;;;;5090749;28;19978;-19
2023/04/03 06:43:11;;;;;;;;;;;18.80;49.40;;;;;;5087176;28;19908;-15
2023/04/03 06:45:37;;;;;;;;;;;19.00;49.00;;;;;;5086767;28;19920;-18
2023/04/03 06:48:15;;;;;;;;;;;19.30;48.60;;;;;;5069108;28;19908;-17
2023/04/03 06:50:43;;;;;;;;;;;19.50;48.20;;;;;;5067296;28;19908;-17
2023/04/03 06:53:09;;;;;;;;;;;19.70;47.90;;;;;;5085352;28;20020;-17
2023/04/03 06:55:43;;;;;;;;;;;19.90;47.50;;;;;;5067064;28;20013;-19
2023/04/03 06:58:19;;;;;;;;;;;20.10;47.20;;;;;;5086410;28;19947;-18
2023/04/03 07:00:47;;;;;;;;;;;20.30;46.90;;;;;;5088360;28;20234;-19
2023/04/03 07:03:19;;;;;;;;;;;20.40;46.50;;;;;;5069998;28;20070;-17
2023/04/03 07:05:45;;;;;;;;;;;20.60;46.20;;;;;;5087333;28;20284;-17
2023/04/03 07:08:13;;;;;;;;;;;20.80;45.90;;;;;;5086791;28;20003;-18
2023/04/03 07:10:39;;;;;;;;;;;20.90;45.60;;;;;;5067308;28;19908;-19
2023/04/03 07:13:07;;;;;;;;;;;21.10;45.30;;;;;;5087308;28;19969;-17
2023/04/03 07:15:33;;;;;;;;;;;21.20;45.00;;;;;;5089154;28;20048;-15
2023/04/03 07:17:59;;;;;;;;;;;21.30;44.80;;;;;;5087067;28;19919;-15
2023/04/03 07:20:31;;;;;;;;;;;21.50;44.50;;;;;;5088478;28;20207;-17
2023/04/03 07:23:06;;;;;;;;;;;21.60;44.20;;;;;;5068357;28;20012;-17
2023/04/03 07:25:31;;;;;;;;;;;21.80;44.00;;;;;;5087546;28;19989;-17
2023/04/03 07:27:57;;;;;;;;;;;21.90;43.70;;;;;;5086180;28;20342;-16
2023/04/03 07:30:26;;;;;;;;;;;22.00;43.50;;;;;;5083506;28;20429;-18
2023/04/03 07:32:52;;;;;;;;;;;22.10;43.30;;;;;;5086682;28;20192;-18
2023/04/03 07:35:24;;;;;;;;;;;22.20;43.10;;;;;;5086543;28;19908;-18
2023/04/03 07:37:50;;;;;;;;;;;22.40;42.90;;;;;;5086468;28;19919;-18
2023/04/03 07:40:15;;;;;;;;;;;22.60;42.60;;;;;;5067889;28;19908;-19
2023/04/03 07:42:44;;;;;;;;;;;22.70;42.30;;;;;;5068175;28;19918;-17
2023/04/03 07:45:12;;;;;;;;;;;22.90;42.10;;;;;;5086999;28;19908;-18
2023/04/03 07:47:38;;;;;;;;;;;23.10;41.90;;;;;;5066698;28;19912;-15
2023/04/03 07:50:07;;;;;;;;;;;23.20;41.70;;;;;;5086598;28;19916;-15
2023/04/03 07:52:35;;;;;;;;;;;23.40;41.60;;;;;;5066996;28;19977;-18
2023/04/03 07:55:01;;;;;;;;;;;23.50;41.20;;;;;;5084933;28;19958;-16
2023/04/03 07:57:29;;;;;;;;;;;23.70;41.40;;;;;;5086520;28;19948;-19
2023/04/03 07:59:55;;;;;;;;;;;23.80;40.70;;;;;;5086429;28;20493;-17
2023/04/03 08:02:20;;;;;;;;;;;23.90;40.60;;;;;;5087002;28;20289;-17
2023/04/03 08:04:49;;;;;;;;;;;24.00;40.50;;;;;;5088584;28;19908;-17
2023/04/03 08:07:33;;;;;;;;;;;24.10;40.30;;;;;;5068701;28;19919;-17
2023/04/03 08:10:17;;;;;;;;;;;24.20;40.10;;;;;;5086897;28;19920;-18
2023/04/03 08:12:54;;;;;;;;;;;24.30;40.10;;;;;;5088061;28;19912;-18
2023/04/03 08:15:26;;;;;;;;;;;24.50;40.00;;;;;;5087802;28;19908;-18
2023/04/03 08:17:52;;;;;;;;;;;24.50;39.70;;;;;;5087213;28;20285;-18
2023/04/03 08:20:17;;;;;;;;;;;24.60;39.60;;;;;;5088433;28;19958;-17
2023/04/03 08:22:43;;;;;;;;;;;24.70;39.50;;;;;;5087677;28;20026;-17
2023/04/03 08:25:15;;;;;;;;;;;24.80;39.30;;;;;;5068968;28;19909;-17
2023/04/03 08:27:44;;;;;;;;;;;24.90;39.10;;;;;;5086793;28;19908;-18
2023/04/03 08:30:12;;;;;;;;;;;25.00;39.00;;;;;;5085385;28;20250;-17
2023/04/03 08:32:41;;;;;;;;;;;25.10;38.90;;;;;;5067436;28;20003;-18
2023/04/03 08:35:25;;;;;;;;;;;25.20;38.80;;;;;;5086903;28;19908;-18
2023/04/03 08:38:00;;;;;;;;;;;25.20;38.70;;;;;;5066802;28;20217;-18
2023/04/03 08:40:29;;;;;;;;;;;25.20;38.70;;;;;;5086235;28;20154;-17
2023/04/03 08:43:06;;;;;;;;;;;25.20;38.60;;;;;;5087475;28;19920;-19
2023/04/03 08:45:47;;;;;;;;;;;25.20;38.60;;;;;;5090358;28;19912;-18
2023/04/03 08:48:21;;;;;;;;;;;25.20;38.50;;;;;;5070198;28;19908;-17
2023/04/03 08:51:08;;;;;;;;;;;25.20;38.50;;;;;;5089851;28;19919;-16
2023/04/03 08:53:39;;;;;;;;;;;25.10;38.50;;;;;;5092189;28;20407;-17
2023/04/03 08:56:08;;;;;;;;;;;25.10;38.50;;;;;;5069724;28;19919;-17
2023/04/03 08:58:42;;;;;;;;;;;25.10;38.40;;;;;;5090991;28;19915;-17
2023/04/03 09:01:20;;;;;;;;;;;25.10;38.40;;;;;;5090767;28;19908;-19
2023/04/03 09:03:46;;;;;;;;;;;24.90;38.50;;;;;;5071890;28;19912;-18
2023/04/03 09:06:23;;;;;;;;;;;24.90;38.50;;;;;;5073758;28;19985;-16
2023/04/03 09:09:05;;;;;;;;;;;24.90;38.50;;;;;;5074057;28;20121;-18
2023/04/03 09:11:55;;;;;;;;;;;24.90;38.50;;;;;;5091708;28;19993;-17
2023/04/03 09:14:39;;;;;;;;;;;24.90;38.50;;;;;;5090973;28;19913;-17
2023/04/03 09:17:23;;;;;;;;;;;24.90;38.50;;;;;;5090010;28;19915;-17
2023/04/03 09:20:03;;;;;;;;;;;24.90;38.40;;;;;;5073588;28;19947;-18
2023/04/03 09:22:38;;;;;;;;;;;25.10;38.40;;;;;;5090609;28;20015;-17
2023/04/03 09:25:24;;;;;;;;;;;25.10;38.20;;;;;;5089402;28;19930;-18
2023/04/03 09:27:51;;;;;;;;;;;25.10;38.20;;;;;;5085063;28;19909;-18
2023/04/03 09:30:37;;;;;;;;;;;25.20;38.00;;;;;;5089856;28;19908;-16
2023/04/03 09:33:06;;;;;;;;;;;25.30;38.00;;;;;;5054609;28;19913;-19
2023/04/03 09:35:34;;;;;;;;;;;25.30;37.90;;;;;;5049790;28;19924;-17
2023/04/03 09:38:00;;;;;;;;;;;25.40;37.90;;;;;;5054212;28;19947;-18
2023/04/03 09:40:26;;;;;;;;;;;25.40;37.70;;;;;;5065567;28;19943;-17
2023/04/03 09:42:52;;;;;;;;;;;25.40;37.80;;;;;;5051024;28;19909;-17
2023/04/03 09:45:24;;;;;;;;;;;25.30;37.80;;;;;;5069506;28;20185;-16
2023/04/03 09:48:19;;;;;;;;;;;25.30;37.70;;;;;;5070555;28;19908;-16
2023/04/03 09:51:01;;;;;;;;;;;25.30;37.70;;;;;;5032394;28;20204;-17
2023/04/03 09:53:42;;;;;;;;;;;25.20;37.80;;;;;;5047728;28;19920;-17
2023/04/03 09:56:17;;;;;;;;;;;25.30;37.70;;;;;;5065916;28;20032;-18
2023/04/03 09:59:01;;;;;;;;;;;25.10;37.70;;;;;;5068230;28;20398;-18
2023/04/03 10:01:48;;;;;;;;;;;24.90;37.80;;;;;;5066444;28;20331;-15
2023/04/03 10:07:29;;;;;;;;;;;23.70;38.00;;;;;;5049348;28;20304;-17
2023/04/03 10:09:57;;;;;;;;;;;22.70;38.60;;;;;;5007633;28;19909;-17
2023/04/03 10:12:26;;;;;;;;;;;21.70;39.20;;;;;;5066254;28;19908;-17
2023/04/03 10:14:56;;;;;;;;;;;20.90;39.90;;;;;;5066559;28;19974;-18
2023/04/03 10:17:40;;;;;;;;;;;20.20;40.60;;;;;;5066050;28;19919;-17
2023/04/03 10:20:24;;;;;;;;;;;19.60;41.20;;;;;;5050874;28;20250;-18
2023/04/03 10:22:59;;;;;;;;;;;19.00;41.90;;;;;;5050058;28;20015;-18
2023/04/03 10:25:35;;;;;;;;;;;18.50;42.80;;;;;;5068011;28;19912;-15
2023/04/03 10:28:19;;;;;;;;;;;18.20;42.80;;;;;;5065568;28;19919;-16
2023/04/03 10:31:24;;;;;;;;;;;18.00;43.10;;;;;;5066536;28;20270;-18
2023/04/03 10:34:18;;;;;;;;;;;17.80;43.30;;;;;;5065967;28;19920;-18
2023/04/03 10:37:06;;;;;;;;;;;17.60;43.50;;;;;;5066757;28;19909;-17
2023/04/03 10:39:52;;;;;;;;;;;17.50;43.60;;;;;;5051284;28;20030;-17
2023/04/03 10:42:44;;;;;;;;;;;17.30;43.90;;;;;;5076034;28;20304;-17
2023/04/03 10:45:16;;;;;;;;;;;17.00;43.90;;;;;;5059189;28;20297;-18
2023/04/03 10:47:54;;;;;;;;;;;16.90;44.10;;;;;;5073260;28;19912;-17
2023/04/03 10:50:39;;;;;;;;;;;16.70;44.10;;;;;;5066249;28;19919;-17
2023/04/03 10:53:36;;;;;;;;;;;16.50;44.30;;;;;;5049133;28;19923;-18
2023/04/03 10:56:28;;;;;;;;;;;16.40;44.40;;;;;;5022706;28;20159;-18
2023/04/03 10:58:57;;;;;;;;;;;16.30;44.80;;;;;;5064455;28;19943;-16
2023/04/03 11:01:32;;;;;;;;;;;16.20;44.90;;;;;;5050543;28;19964;-17
2023/04/03 11:04:06;;;;;;;;;;;16.10;45.00;;;;;;5065147;28;20254;-17
2023/04/03 11:06:53;;;;;;;;;;;16.10;45.20;;;;;;5047320;28;20069;-17
2023/04/03 11:09:25;;;;;;;;;;;15.90;45.30;;;;;;5066100;28;20033;-16
2023/04/03 11:11:53;;;;;;;;;;;15.90;45.40;;;;;;5045117;28;20143;-16
2023/04/03 11:14:25;;;;;;;;;;;15.80;45.40;;;;;;5064083;28;19913;-18
2023/04/03 11:17:17;;;;;;;;;;;15.70;45.50;;;;;;5048353;28;20159;-16
2023/04/03 11:19:46;;;;;;;;;;;15.60;45.30;;;;;;4980942;28;19914;-18
2023/04/03 11:22:17;;;;;;;;;;;15.50;45.50;;;;;;5046842;28;19908;-19
2023/04/03 11:24:46;;;;;;;;;;;15.40;45.50;;;;;;5066608;28;20015;-19
2023/04/03 11:27:22;;;;;;;;;;;15.30;45.70;;;;;;5065312;28;19986;-18
2023/04/03 11:30:17;;;;;;;;;;;15.20;45.60;;;;;;5048510;28;20013;-15
2023/04/03 11:32:43;;;;;;;;;;;15.10;45.60;;;;;;5066387;28;19925;-18
2023/04/03 11:35:09;;;;;;;;;;;15.00;45.60;;;;;;5047727;28;20062;-18
2023/04/03 11:37:44;;;;;;;;;;;14.90;45.70;;;;;;5064180;28;21170;-18
2023/04/03 11:40:17;;;;;;;;;;;14.90;45.50;;;;;;5048652;28;20030;-17
2023/04/03 11:42:50;;;;;;;;;;;14.80;45.70;;;;;;5065523;28;19919;-17
2023/04/03 11:45:22;;;;;;;;;;;14.70;45.60;;;;;;5064982;28;20249;-18
2023/04/03 11:47:54;;;;;;;;;;;14.70;45.70;;;;;;5045459;28;20005;-18
2023/04/03 11:50:41;;;;;;;;;;;14.70;45.90;;;;;;5064906;28;19939;-18
2023/04/03 11:53:13;;;;;;;;;;;14.60;45.80;;;;;;5066106;28;19923;-18
2023/04/03 11:55:51;;;;;;;;;;;14.60;46.00;;;;;;5065949;28;20131;-17
2023/04/03 11:58:33;;;;;;;;;;;14.60;45.90;;;;;;5044911;28;19912;-17
2023/04/03 12:01:09;;;;;;;;;;;14.60;46.10;;;;;;5044511;28;19912;-17
2023/04/03 12:03:36;;;;;;;;;;;14.50;45.90;;;;;;5064203;28;20033;-18
2023/04/03 12:06:16;;;;;;;;;;;14.50;46.20;;;;;;5065264;28;20199;-18
2023/04/03 12:08:46;;;;;;;;;;;14.50;46.10;;;;;;5063753;28;19908;-17
2023/04/03 12:11:12;;;;;;;;;;;14.50;46.20;;;;;;5046462;28;20256;-16
2023/04/03 12:13:56;;;;;;;;;;;14.50;46.00;;;;;;5065185;28;20217;-18
2023/04/03 12:16:21;;;;;;;;;;;14.40;46.20;;;;;;5065702;28;20388;-18
2023/04/03 12:18:53;;;;;;;;;;;14.40;46.00;;;;;;5069032;28;19913;-18
2023/04/03 12:21:40;;;;;;;;;;;14.40;45.90;;;;;;5072506;28;19908;-14
2023/04/03 12:24:12;;;;;;;;;;;14.30;45.80;;;;;;5061760;28;20264;-19
2023/04/03 12:26:56;;;;;;;;;;;14.30;46.00;;;;;;5061941;28;19908;-19
2023/04/03 12:29:41;;;;;;;;;;;14.30;46.10;;;;;;5067262;28;19908;-19
2023/04/03 12:32:26;;;;;;;;;;;14.20;45.90;;;;;;5067006;28;20206;-15
2023/04/03 12:38:05;;;;;;;;;;;14.10;45.90;;;;;;5049397;28;19998;-17
2023/04/03 12:40:36;;;;;;;;;;;14.10;45.90;;;;;;5068641;28;20425;-18
2023/04/03 12:43:13;;;;;;;;;;;14.10;46.00;;;;;;5051706;28;20202;-17
2023/04/03 12:45:58;;;;;;;;;;;14.10;46.00;;;;;;5068911;28;19927;-17
2023/04/03 12:48:26;;;;;;;;;;;14.10;46.10;;;;;;5069491;28;20347;-16
2023/04/03 12:50:51;;;;;;;;;;;14.00;46.00;;;;;;5069194;28;20030;-18
2023/04/03 12:53:30;;;;;;;;;;;14.00;46.10;;;;;;5069830;28;19913;-16
2023/04/03 12:55:56;;;;;;;;;;;14.00;46.10;;;;;;5070251;28;19912;-18
2023/04/03 12:58:26;;;;;;;;;;;14.00;46.40;;;;;;5050195;28;20144;-18
2023/04/03 13:01:22;;;;;;;;;;;14.00;46.20;;;;;;5050036;28;19935;-16
2023/04/03 13:04:04;;;;;;;;;;;14.00;46.30;;;;;;5000896;28;20387;-19
2023/04/03 13:06:40;;;;;;;;;;;14.00;46.10;;;;;;5055542;28;19978;-17
2023/04/03 13:09:06;;;;;;;;;;;14.00;46.20;;;;;;5068983;28;20161;-18
2023/04/03 13:11:44;;;;;;;;;;;14.00;46.20;;;;;;5049936;28;20007;-18
2023/04/03 13:14:15;;;;;;;;;;;14.00;46.20;;;;;;5050347;28;20030;-17
2023/04/03 13:16:44;;;;;;;;;;;14.00;46.10;;;;;;5069022;28;19909;-19
2023/04/03 13:19:19;;;;;;;;;;;13.90;46.00;;;;;;5068772;28;19912;-19
2023/04/03 13:21:45;;;;;;;;;;;13.90;46.20;;;;;;5050875;28;19938;-17
2023/04/03 13:24:13;;;;;;;;;;;13.90;46.30;;;;;;5068556;28;19916;-18
2023/04/03 13:26:42;;;;;;;;;;;13.80;46.10;;;;;;5069034;28;19908;-18
2023/04/03 13:29:22;;;;;;;;;;;13.90;46.20;;;;;;5067380;28;19909;-18
2023/04/03 13:31:52;;;;;;;;;;;13.80;46.20;;;;;;5068640;28;20351;-19
2023/04/03 13:34:19;;;;;;;;;;;13.80;46.20;;;;;;5051209;28;20274;-17
2023/04/03 13:36:54;;;;;;;;;;;13.80;46.20;;;;;;5050761;28;19962;-16
2023/04/03 13:39:28;;;;;;;;;;;13.80;46.30;;;;;;5049702;28;20007;-18
2023/04/03 13:41:55;;;;;;;;;;;13.80;46.20;;;;;;5050229;28;20309;-19
2023/04/03 13:44:20;;;;;;;;;;;13.70;46.10;;;;;;5066439;28;19908;-18
2023/04/03 13:46:46;;;;;;;;;;;13.70;46.20;;;;;;5068021;28;19924;-16
2023/04/03 13:49:33;;;;;;;;;;;13.70;46.10;;;;;;5050768;28;19912;-17
2023/04/03 13:52:00;;;;;;;;;;;13.70;46.10;;;;;;5063650;28;19908;-15
2023/04/03 13:54:31;;;;;;;;;;;13.70;46.00;;;;;;5047495;28;20205;-18
2023/04/03 13:57:03;;;;;;;;;;;13.70;46.00;;;;;;5064045;28;19916;-17
2023/04/03 13:59:35;;;;;;;;;;;13.70;46.00;;;;;;5063469;28;19935;-19
2023/04/03 14:02:23;;;;;;;;;;;13.80;46.00;;;;;;5045081;28;19908;-18
2023/04/03 14:04:50;;;;;;;;;;;13.70;46.00;;;;;;5065351;28;20209;-17
2023/04/03 14:07:21;;;;;;;;;;;13.80;46.00;;;;;;5048962;28;19924;-17
2023/04/03 14:09:59;;;;;;;;;;;13.80;46.00;;;;;;5066583;28;19912;-17
2023/04/03 14:12:34;;;;;;;;;;;13.80;45.90;;;;;;5049660;28;20061;-17
2023/04/03 14:15:03;;;;;;;;;;;13.80;45.90;;;;;;5048989;28;19913;-17
2023/04/03 14:17:28;;;;;;;;;;;13.80;45.90;;;;;;5066549;28;20003;-16
2023/04/03 14:20:17;;;;;;;;;;;13.80;45.90;;;;;;5047700;28;20070;-17
2023/04/03 14:22:46;;;;;;;;;;;13.80;45.90;;;;;;5048235;28;20227;-16
2023/04/03 14:25:22;;;;;;;;;;;13.80;45.90;;;;;;5064725;28;20104;-17
2023/04/03 14:27:49;;;;;;;;;;;13.80;46.00;;;;;;5067367;28;20301;-18
2023/04/03 14:30:15;;;;;;;;;;;13.80;46.10;;;;;;5070732;28;19946;-17
2023/04/03 14:32:43;;;;;;;;;;;13.80;46.00;;;;;;5077208;28;19919;-18
2023/04/03 14:35:09;;;;;;;;;;;13.80;46.00;;;;;;5059886;28;20302;-17
2023/04/03 14:37:35;;;;;;;;;;;13.80;45.90;;;;;;5051012;28;20345;-18
2023/04/03 14:40:04;;;;;;;;;;;13.80;45.90;;;;;;5052433;28;19919;-18
2023/04/03 14:42:32;;;;;;;;;;;13.80;45.90;;;;;;5053453;28;20019;-17
2023/04/03 14:44:58;;;;;;;;;;;13.80;45.90;;;;;;5048180;28;20145;-17
2023/04/03 14:47:29;;;;;;;;;;;13.80;45.90;;;;;;5047885;28;19969;-16
2023/04/03 14:49:58;;;;;;;;;;;13.80;45.80;;;;;;5049851;28;20274;-17
2023/04/03 14:52:29;;;;;;;;;;;13.80;45.80;;;;;;5064289;28;19908;-15
2023/04/03 14:54:55;;;;;;;;;;;13.80;45.80;;;;;;5065690;28;20060;-19
2023/04/03 14:57:27;;;;;;;;;;;13.80;45.80;;;;;;5046411;28;19917;-16
2023/04/03 14:59:53;;;;;;;;;;;13.80;45.70;;;;;;5067310;28;19920;-17
2023/04/03 15:02:36;;;;;;;;;;;13.80;45.70;;;;;;5046567;28;20288;-15
2023/04/03 15:05:11;;;;;;;;;;;13.80;45.70;;;;;;5067225;28;19954;-18
2023/04/03 15:07:38;;;;;;;;;;;13.70;45.60;;;;;;5044936;28;20091;-15
2023/04/03 15:10:26;;;;;;;;;;;13.70;45.60;;;;;;5048251;28;19920;-18
2023/04/03 15:12:58;;;;;;;;;;;13.70;45.70;;;;;;5049487;28;19968;-19
2023/04/03 15:15:28;;;;;;;;;;;13.70;45.70;;;;;;5067890;28;20118;-16
2023/04/03 15:17:54;;;;;;;;;;;13.60;45.70;;;;;;5069049;28;20227;-20
2023/04/03 15:20:33;;;;;;;;;;;13.60;45.70;;;;;;5066489;28;19909;-20
2023/04/03 15:26:03;;;;;;;;;;;13.50;45.70;;;;;;5003977;28;20229;-18
2023/04/03 15:28:29;;;;;;;;;;;13.40;45.80;;;;;;5004157;28;20020;-18
2023/04/03 15:30:55;;;;;;;;;;;13.30;45.90;;;;;;5004069;28;20297;-16
2023/04/03 15:33:42;;;;;;;;;;;13.30;46.00;;;;;;5013353;28;19913;-16
2023/04/03 15:36:07;;;;;;;;;;;13.30;46.10;;;;;;5067794;28;19915;-18
2023/04/03 15:38:37;;;;;;;;;;;13.20;46.20;;;;;;5048129;28;20290;-18
2023/04/03 15:41:06;;;;;;;;;;;13.20;46.20;;;;;;5063944;28;20193;-18
2023/04/03 15:43:41;;;;;;;;;;;13.30;46.20;;;;;;5047233;28;20119;-18